Terminal Aerodrome Forecast
Issued by NWS

Home | Current Version | Previous Version | Text Only | Print | Product List | Glossary On
Versions: 1 2 3 4 5 6 7 8 9 10 11 12 13 14 15 16 17 18 19 20 21 22 23 24 25 26 27 28
000
FTUS41 KBUF 052000 AAA
TAFJHW
TAF AMD
KJHW 052040Z 0521/0618 33009KT P6SM SCT025 OVC200
     FM052300 31008KT P6SM SCT250
     FM060500 VRB03KT P6SM SKC
     FM061400 21004KT P6SM FEW250
     FM061700 22008KT P6SM SCT250
      AMD LTD TO CLD VIS AND WIND=

USA.gov is the U.S. government's official web portal to all federal, state and local government web resources and services.